createdAt,value
2019-05-22T00:02:24.744Z,51.35
2019-05-22T00:05:06.422Z,51.88
2019-05-22T00:07:35.592Z,52.85
2019-05-22T00:10:06.837Z,51.68
2019-05-22T00:12:46.597Z,50.45
2019-05-22T00:15:10.369Z,53.25
2019-05-22T00:17:39.999Z,53.10
2019-05-22T00:20:11.406Z,54.60
2019-05-22T00:22:42.876Z,52.95
2019-05-22T00:25:16.017Z,52.25
2019-05-22T00:27:47.047Z,51.10
2019-05-22T00:30:16.571Z,53.23
2019-05-22T00:32:47.481Z,53.63
2019-05-22T00:35:19.201Z,51.50
2019-05-22T00:37:47.969Z,50.78
2019-05-22T00:40:18.520Z,52.90
2019-05-22T00:43:02.867Z,47.35
2019-05-22T00:45:22.699Z,48.83
2019-05-22T00:47:51.977Z,47.55
2019-05-22T00:50:24.868Z,47.10
2019-05-22T00:53:12.297Z,48.17
2019-05-22T00:55:58.510Z,45.65
2019-05-22T00:58:40.181Z,46.33
2019-05-22T01:01:18.285Z,44.88
2019-05-22T01:03:49.270Z,44.88
2019-05-22T01:06:20.947Z,44.43
2019-05-22T01:08:52.707Z,45.23
2019-05-22T01:11:24.518Z,45.08
2019-05-22T01:16:24.932Z,45.35
2019-05-22T01:18:54.494Z,42.55
2019-05-22T01:21:25.486Z,43.17
2019-05-22T01:23:59.876Z,41.43
2019-05-22T01:26:29.032Z,40.08
2019-05-22T01:28:58.288Z,39.50
2019-05-22T01:31:33.320Z,41.25
2019-05-22T01:34:07.881Z,39.50
2019-05-22T01:36:44.592Z,38.53
2019-05-22T01:39:43.885Z,38.78
2019-05-22T01:42:17.931Z,38.70
2019-05-22T01:45:00.979Z,41.50
2019-05-22T01:47:48.691Z,40.20
2019-05-22T01:50:25.590Z,37.95
2019-05-22T01:52:56.046Z,35.05
2019-05-22T01:55:27.106Z,34.85
2019-05-22T01:57:55.983Z,33.60
2019-05-22T02:00:24.916Z,32.23
2019-05-22T02:02:54.044Z,34.25
2019-05-22T02:05:25.125Z,34.10
2019-05-22T02:07:55.938Z,35.40
2019-05-22T02:10:30.351Z,34.98
2019-05-22T02:13:02.921Z,33.90
2019-05-22T02:15:34.779Z,33.55
2019-05-22T02:20:33.811Z,31.97
2019-05-22T02:23:03.249Z,33.30
2019-05-22T02:25:32.439Z,33.80
2019-05-22T02:28:01.617Z,36.35
2019-05-22T02:30:33.139Z,35.05
2019-05-22T02:33:02.344Z,32.98
2019-05-22T02:35:31.412Z,32.42
2019-05-22T02:38:01.237Z,30.48
2019-05-22T02:40:33.487Z,29.00
2019-05-22T02:43:04.173Z,30.10
2019-05-22T02:45:33.909Z,30.25
2019-05-22T02:48:05.895Z,27.67
2019-05-22T02:50:35.270Z,27.17
2019-05-22T02:53:07.503Z,26.00
2019-05-22T02:55:37.477Z,26.65
2019-05-22T02:58:07.714Z,26.00
2019-05-22T03:00:48.708Z,24.90
2019-05-22T03:03:17.652Z,27.82
2019-05-22T03:05:48.299Z,25.32
2019-05-22T03:08:18.377Z,22.25
2019-05-22T03:10:47.447Z,25.65
2019-05-22T03:13:17.088Z,25.32
2019-05-22T03:15:46.724Z,26.85
2019-05-22T03:18:17.110Z,27.20
2019-05-22T03:20:48.225Z,26.55
2019-05-22T03:23:37.787Z,28.65
2019-05-22T03:26:10.782Z,33.20
2019-05-22T03:28:41.007Z,40.08
2019-05-22T03:31:11.086Z,45.73
2019-05-22T03:33:41.226Z,45.03
2019-05-22T03:36:13.832Z,43.60
2019-05-22T03:38:44.105Z,43.75
2019-05-22T03:41:13.400Z,41.40
2019-05-22T03:43:44.979Z,43.13
2019-05-22T03:46:30.774Z,42.40
2019-05-22T03:49:00.660Z,42.88
2019-05-22T03:51:29.969Z,41.98
2019-05-22T03:53:59.306Z,43.00
2019-05-22T03:56:30.125Z,44.27
2019-05-22T03:59:00.877Z,45.38
2019-05-22T04:01:31.416Z,45.08
2019-05-22T04:04:02.025Z,43.40
2019-05-22T04:06:32.952Z,41.45
2019-05-22T04:09:10.426Z,46.17
2019-05-22T04:11:42.740Z,44.38
2019-05-22T04:14:12.413Z,41.98
2019-05-22T04:16:41.482Z,43.28
2019-05-22T04:19:10.678Z,40.12
2019-05-22T04:21:39.857Z,44.85
2019-05-22T04:24:09.553Z,41.75
2019-05-22T04:26:38.496Z,42.83
2019-05-22T04:29:09.658Z,40.70
2019-05-22T04:31:56.161Z,39.67
2019-05-22T04:34:25.620Z,39.80
2019-05-22T04:36:55.555Z,39.83
2019-05-22T04:39:27.341Z,42.93
2019-05-22T04:41:58.899Z,40.92
2019-05-22T04:44:28.241Z,44.08
2019-05-22T04:46:57.264Z,42.90
2019-05-22T04:49:25.998Z,42.13
2019-05-22T04:51:55.741Z,43.20
2019-05-22T04:54:24.714Z,42.15
2019-05-22T04:56:53.649Z,41.90
2019-05-22T04:59:22.771Z,41.53
2019-05-22T05:01:51.842Z,39.80
2019-05-22T05:04:21.265Z,40.33
2019-05-22T05:06:50.574Z,39.15
2019-05-22T05:09:19.715Z,38.58
2019-05-22T05:11:49.455Z,37.38
2019-05-22T05:14:18.500Z,41.53
2019-05-22T05:16:48.702Z,42.23
2019-05-22T05:19:17.585Z,36.77
2019-05-22T05:21:46.899Z,43.00
2019-05-22T05:24:15.951Z,42.58
2019-05-22T05:26:46.020Z,40.78
2019-05-22T05:29:30.457Z,39.42
2019-05-22T05:31:59.759Z,39.40
2019-05-22T05:34:55.717Z,40.35
2019-05-22T05:37:25.077Z,39.73
2019-05-22T05:40:21.337Z,39.03
2019-05-22T05:42:50.816Z,39.60
2019-05-22T05:45:19.865Z,37.93
2019-05-22T05:47:48.558Z,38.98
2019-05-22T05:50:18.267Z,40.45
2019-05-22T05:52:48.043Z,38.73
2019-05-22T05:55:17.951Z,40.60
2019-05-22T05:58:32.427Z,38.08
2019-05-22T06:01:13.005Z,36.73
2019-05-22T06:03:43.502Z,36.65
2019-05-22T06:06:57.550Z,36.15
2019-05-22T06:09:28.256Z,35.25
2019-05-22T06:12:05.417Z,33.75
2019-05-22T06:14:35.872Z,33.92
2019-05-22T06:17:44.726Z,35.17
2019-05-22T06:20:20.504Z,32.45
2019-05-22T06:23:46.014Z,29.50
2019-05-22T06:26:25.366Z,29.92
2019-05-22T06:28:54.135Z,31.62
2019-05-22T06:31:36.070Z,32.40
2019-05-22T06:34:04.938Z,30.95
2019-05-22T06:36:33.960Z,32.00
2019-05-22T06:39:16.561Z,31.23
2019-05-22T06:41:46.856Z,27.75
2019-05-22T06:44:35.289Z,27.30
2019-05-22T06:47:06.481Z,26.07
2019-05-22T06:49:45.502Z,27.42
2019-05-22T06:52:17.883Z,26.02
2019-05-22T06:54:47.600Z,26.25
2019-05-22T06:57:23.344Z,28.35
2019-05-22T07:00:11.562Z,27.35
2019-05-22T07:02:24.972Z,27.13
2019-05-22T07:04:54.866Z,26.02
2019-05-22T07:07:27.499Z,28.80
2019-05-22T07:09:56.749Z,28.35
2019-05-22T07:12:28.475Z,27.40
2019-05-22T07:15:31.733Z,28.85
2019-05-22T07:18:01.244Z,30.00
2019-05-22T07:20:33.298Z,29.35
2019-05-22T07:23:04.207Z,26.62
2019-05-22T07:25:35.581Z,27.22
2019-05-22T07:28:05.535Z,29.23
2019-05-22T07:30:34.631Z,27.73
2019-05-22T07:33:04.741Z,28.73
2019-05-22T07:35:46.038Z,23.98
2019-05-22T07:38:04.329Z,20.27
2019-05-22T07:40:33.633Z,18.27
2019-05-22T07:43:02.657Z,16.20
2019-05-22T07:45:32.730Z,18.20
2019-05-22T07:48:02.384Z,17.30
2019-05-22T07:50:33.987Z,17.45
2019-05-22T07:53:03.333Z,17.75
2019-05-22T07:55:53.826Z,17.80
2019-05-22T07:58:24.674Z,17.70
2019-05-22T08:00:59.072Z,12.43
2019-05-22T08:03:28.659Z,14.87
2019-05-22T08:05:58.857Z,15.93
2019-05-22T08:08:29.919Z,14.55
2019-05-22T08:10:59.717Z,14.70
2019-05-22T08:13:29.293Z,14.60
2019-05-22T08:15:58.576Z,16.82
2019-05-22T08:18:30.388Z,14.15
2019-05-22T08:20:59.441Z,14.98
2019-05-22T08:23:28.309Z,14.53
2019-05-22T08:25:58.755Z,13.93
2019-05-22T08:28:30.198Z,12.63
2019-05-22T08:31:00.506Z,14.00
2019-05-22T08:33:30.485Z,12.95
2019-05-22T08:35:59.554Z,11.55
2019-05-22T08:38:31.220Z,12.37
2019-05-22T08:41:01.472Z,12.35
2019-05-22T08:43:31.086Z,12.37
2019-05-22T08:46:00.523Z,13.18
2019-05-22T08:48:30.696Z,12.88
2019-05-22T08:51:00.138Z,13.00
2019-05-22T08:53:44.364Z,14.38
2019-05-22T08:56:00.785Z,13.18
2019-05-22T08:58:29.980Z,13.85
2019-05-22T09:00:58.752Z,13.90
2019-05-22T09:03:27.779Z,13.58
2019-05-22T09:05:56.787Z,14.70
2019-05-22T09:08:25.713Z,14.68
2019-05-22T09:10:54.804Z,16.77
2019-05-22T09:13:24.079Z,18.42
2019-05-22T09:15:53.684Z,18.02
2019-05-22T09:18:23.015Z,19.23
2019-05-22T09:20:51.890Z,19.42
2019-05-22T09:23:20.660Z,19.85
2019-05-22T09:25:49.631Z,19.42
2019-05-22T09:28:18.785Z,18.67
2019-05-22T09:30:47.787Z,20.12
2019-05-22T09:33:17.871Z,18.17
2019-05-22T09:35:46.893Z,20.60
2019-05-22T09:38:15.712Z,18.23
2019-05-22T09:40:45.115Z,18.05
2019-05-22T09:43:14.175Z,17.45
2019-05-22T09:45:42.934Z,20.02
2019-05-22T09:48:11.709Z,18.37
2019-05-22T09:50:40.737Z,19.32
2019-05-22T09:53:09.775Z,18.75
2019-05-22T09:55:40.657Z,19.32
2019-05-22T09:58:09.348Z,15.23
2019-05-22T10:00:38.640Z,15.90
2019-05-22T10:03:07.613Z,16.52
2019-05-22T10:05:38.213Z,15.38
2019-05-22T10:08:07.645Z,16.23
2019-05-22T10:10:36.544Z,14.07
2019-05-22T10:13:05.450Z,15.75
2019-05-22T10:15:34.560Z,15.35
2019-05-22T10:18:03.754Z,12.75
2019-05-22T10:20:32.880Z,13.32
2019-05-22T10:23:14.605Z,13.80
2019-05-22T10:25:33.234Z,12.33
2019-05-22T10:28:02.253Z,12.90
2019-05-22T10:30:31.472Z,12.43
2019-05-22T10:33:00.221Z,12.13
2019-05-22T10:35:31.866Z,11.88
2019-05-22T10:38:01.418Z,11.55
2019-05-22T10:40:30.177Z,10.35
2019-05-22T10:42:58.860Z,11.05
2019-05-22T10:45:28.457Z,12.43
2019-05-22T10:47:57.801Z,12.03
2019-05-22T10:50:26.573Z,12.05
2019-05-22T10:52:55.736Z,11.00
2019-05-22T10:55:24.952Z,12.73
2019-05-22T10:57:54.355Z,11.60
2019-05-22T11:00:24.908Z,12.82
2019-05-22T11:02:53.864Z,11.93
2019-05-22T11:05:22.702Z,11.53
2019-05-22T11:07:52.309Z,12.58
2019-05-22T11:10:24.266Z,12.88
2019-05-22T11:12:53.873Z,11.53
2019-05-22T11:15:23.669Z,12.93
2019-05-22T11:17:53.706Z,11.33
2019-05-22T11:20:24.462Z,11.97
2019-05-22T11:22:54.290Z,11.70
2019-05-22T11:25:23.535Z,13.45
2019-05-22T11:27:54.270Z,11.43
2019-05-22T11:30:24.016Z,12.60
2019-05-22T11:32:53.589Z,12.82
2019-05-22T11:35:22.892Z,11.97
2019-05-22T11:37:51.774Z,12.37
2019-05-22T11:40:21.367Z,12.50
2019-05-22T11:42:51.930Z,11.48
2019-05-22T11:45:22.084Z,13.28
2019-05-22T11:47:51.511Z,15.28
2019-05-22T11:50:21.806Z,14.10
2019-05-22T11:52:51.246Z,14.13
2019-05-22T11:55:20.957Z,14.05
2019-05-22T11:57:51.949Z,13.95
2019-05-22T12:00:23.070Z,15.47
2019-05-22T12:02:52.235Z,15.75
2019-05-22T12:05:21.931Z,15.85
2019-05-22T12:07:51.612Z,21.25
2019-05-22T12:10:22.412Z,15.03
2019-05-22T12:12:52.782Z,14.43
2019-05-22T12:15:23.870Z,14.43
2019-05-22T12:17:53.418Z,14.75
2019-05-22T12:20:24.328Z,13.28
2019-05-22T12:22:53.261Z,13.43
2019-05-22T12:25:22.819Z,13.75
2019-05-22T12:27:51.912Z,13.75
2019-05-22T12:30:21.797Z,13.43
2019-05-22T12:32:52.438Z,13.58
2019-05-22T12:35:22.104Z,13.10
2019-05-22T12:37:50.895Z,13.62
2019-05-22T12:40:20.816Z,13.55
2019-05-22T12:42:49.707Z,13.48
2019-05-22T12:45:26.896Z,12.60
2019-05-22T12:47:56.112Z,13.03
2019-05-22T12:50:29.036Z,12.95
2019-05-22T12:52:58.742Z,12.85
2019-05-22T12:55:27.780Z,12.88
2019-05-22T12:57:56.557Z,12.35
2019-05-22T13:00:27.042Z,13.90
2019-05-22T13:02:56.544Z,12.65
2019-05-22T13:05:27.363Z,12.10
2019-05-22T13:07:57.001Z,11.75
2019-05-22T13:10:27.955Z,11.38
2019-05-22T13:12:57.208Z,11.05
2019-05-22T13:15:26.757Z,11.10
2019-05-22T13:17:57.949Z,10.38
2019-05-22T13:20:41.754Z,9.60
2019-05-22T13:23:03.264Z,9.80
2019-05-22T13:25:35.937Z,9.58
2019-05-22T13:28:05.751Z,9.45
2019-05-22T13:30:36.338Z,10.10
2019-05-22T13:33:05.919Z,9.63
2019-05-22T13:35:35.537Z,10.00
2019-05-22T13:38:05.411Z,11.25
2019-05-22T13:40:34.809Z,10.75
2019-05-22T13:43:04.781Z,9.50
2019-05-22T13:45:34.106Z,9.30
2019-05-22T13:48:04.385Z,9.08
2019-05-22T13:50:33.359Z,9.58
2019-05-22T13:53:04.899Z,10.05
2019-05-22T13:55:33.840Z,9.80
2019-05-22T13:58:03.410Z,9.90
2019-05-22T14:00:32.619Z,9.50
2019-05-22T14:03:01.913Z,9.25
2019-05-22T14:05:33.114Z,10.32
2019-05-22T14:08:01.907Z,8.63
2019-05-22T14:10:31.527Z,9.60
2019-05-22T14:13:01.278Z,9.00
2019-05-22T14:15:47.782Z,8.95
2019-05-22T14:18:02.294Z,9.30
2019-05-22T14:20:31.112Z,8.13
2019-05-22T14:22:59.956Z,8.73
2019-05-22T14:25:29.249Z,8.10
2019-05-22T14:27:58.143Z,8.00
2019-05-22T14:30:27.891Z,8.35
2019-05-22T14:33:03.964Z,8.53
2019-05-22T14:35:47.816Z,7.33
2019-05-22T14:38:06.406Z,7.67
2019-05-22T14:40:37.769Z,6.97
2019-05-22T14:43:07.580Z,7.92
2019-05-22T14:45:37.643Z,8.10
2019-05-22T14:48:06.506Z,7.50
2019-05-22T14:50:36.010Z,7.10
2019-05-22T14:53:04.818Z,7.05
2019-05-22T14:55:35.099Z,7.62
2019-05-22T14:58:05.859Z,7.85
2019-05-22T15:00:35.201Z,7.37
2019-05-22T15:03:05.037Z,7.47
2019-05-22T15:05:34.349Z,6.80
2019-05-22T15:08:03.609Z,5.70
2019-05-22T15:10:33.120Z,6.72
2019-05-22T15:13:02.727Z,5.55
2019-05-22T15:15:31.570Z,5.35
2019-05-22T15:18:00.681Z,5.10
2019-05-22T15:20:46.876Z,5.58
2019-05-22T15:23:18.310Z,5.25
2019-05-22T15:25:48.215Z,5.22
2019-05-22T15:28:17.044Z,5.22
2019-05-22T15:30:46.044Z,5.15
2019-05-22T15:33:15.905Z,5.20
2019-05-22T15:35:45.812Z,5.10
2019-05-22T15:38:16.405Z,5.17
2019-05-22T15:40:46.138Z,5.30
2019-05-22T15:43:16.022Z,5.17
2019-05-22T15:45:45.313Z,4.97
2019-05-22T15:48:21.513Z,4.80
2019-05-22T15:50:53.523Z,5.35
2019-05-22T15:53:45.349Z,4.80
2019-05-22T15:56:14.934Z,5.42
2019-05-22T15:58:47.905Z,4.70
2019-05-22T16:01:20.040Z,5.33
2019-05-22T16:03:51.230Z,5.17
2019-05-22T16:06:21.827Z,4.72
2019-05-22T16:08:50.981Z,5.03
2019-05-22T16:11:21.467Z,6.45
2019-05-22T16:13:51.296Z,5.60
2019-05-22T16:16:24.311Z,4.85
2019-05-22T16:18:55.978Z,4.08
2019-05-22T16:21:27.231Z,4.58
2019-05-22T16:23:57.945Z,4.42
2019-05-22T16:26:27.669Z,4.78
2019-05-22T16:28:56.937Z,4.45
2019-05-22T16:31:27.162Z,4.47
2019-05-22T16:33:56.103Z,4.22
2019-05-22T16:36:25.729Z,4.05
2019-05-22T16:38:54.836Z,4.35
2019-05-22T16:41:25.632Z,3.90
2019-05-22T16:43:55.889Z,3.75
2019-05-22T16:46:25.641Z,4.08
2019-05-22T16:48:54.770Z,4.00
2019-05-22T16:51:25.626Z,4.03
2019-05-22T16:53:57.333Z,3.77
2019-05-22T16:58:55.990Z,4.60
2019-05-22T17:01:26.403Z,4.42
2019-05-22T17:03:58.450Z,4.28
2019-05-22T17:06:27.341Z,3.75
2019-05-22T17:08:57.846Z,4.10
2019-05-22T17:11:27.723Z,3.72
2019-05-22T17:13:59.066Z,3.95
2019-05-22T17:16:30.327Z,3.98
2019-05-22T17:18:59.269Z,4.30
2019-05-22T17:21:29.475Z,4.40
2019-05-22T17:24:00.163Z,3.92
2019-05-22T17:26:30.099Z,3.98
2019-05-22T17:28:59.879Z,3.80
2019-05-22T17:31:29.719Z,3.77
2019-05-22T17:33:59.459Z,3.80
2019-05-22T17:36:30.613Z,3.75
2019-05-22T17:39:00.053Z,3.67
2019-05-22T17:41:30.479Z,3.85
2019-05-22T17:44:00.754Z,3.77
2019-05-22T17:46:31.407Z,4.22
2019-05-22T17:49:01.282Z,3.72
2019-05-22T17:51:30.941Z,3.55
2019-05-22T17:54:00.534Z,4.30
2019-05-22T17:56:30.581Z,3.67
2019-05-22T17:58:59.714Z,3.67
2019-05-22T18:01:28.752Z,3.77
2019-05-22T18:03:57.565Z,3.90
2019-05-22T18:06:26.624Z,3.85
2019-05-22T18:08:55.643Z,4.22
2019-05-22T18:11:25.018Z,5.20
2019-05-22T18:13:58.999Z,4.78
2019-05-22T18:16:28.207Z,3.77
2019-05-22T18:18:57.487Z,3.75
2019-05-22T18:21:26.364Z,3.90
2019-05-22T18:23:55.205Z,3.75
2019-05-22T18:26:24.743Z,3.47
2019-05-22T18:28:53.482Z,3.02
2019-05-22T18:31:22.242Z,3.62
2019-05-22T18:33:51.313Z,3.50
2019-05-22T18:36:20.073Z,3.60
2019-05-22T18:38:49.093Z,3.25
2019-05-22T18:41:17.929Z,3.75
2019-05-22T18:43:46.610Z,4.25
2019-05-22T18:46:15.971Z,3.65
2019-05-22T18:48:47.723Z,3.95
2019-05-22T18:51:15.100Z,4.53
2019-05-22T18:53:43.776Z,5.17
2019-05-22T18:56:13.268Z,4.28
2019-05-22T18:58:44.027Z,4.97
2019-05-22T19:01:16.208Z,4.45
2019-05-22T19:03:43.494Z,4.40
2019-05-22T19:06:12.349Z,4.70
2019-05-22T19:08:41.718Z,5.05
2019-05-22T19:11:10.406Z,4.60
2019-05-22T19:13:39.158Z,5.78
2019-05-22T19:16:08.283Z,7.15
2019-05-22T19:18:37.304Z,4.65
2019-05-22T19:21:06.347Z,4.60
2019-05-22T19:23:35.366Z,5.33
2019-05-22T19:26:05.886Z,4.87
2019-05-22T19:28:43.281Z,5.67
2019-05-22T19:31:05.859Z,7.20
2019-05-22T19:33:35.215Z,6.25
2019-05-22T19:36:04.657Z,6.60
2019-05-22T19:38:33.468Z,7.10
2019-05-22T19:41:02.597Z,8.53
2019-05-22T19:43:31.567Z,7.53
2019-05-22T19:46:00.622Z,7.40
2019-05-22T19:48:29.500Z,7.40
2019-05-22T19:51:01.510Z,6.70
2019-05-22T19:53:30.084Z,7.70
2019-05-22T19:55:59.439Z,20.90
2019-05-22T19:58:28.573Z,7.20
2019-05-22T20:00:57.715Z,5.53
2019-05-22T20:03:26.547Z,5.40
2019-05-22T20:05:55.471Z,4.95
2019-05-22T20:08:24.894Z,5.22
2019-05-22T20:10:54.452Z,4.78
2019-05-22T20:13:23.922Z,5.62
2019-05-22T20:15:52.662Z,4.37
2019-05-22T20:18:21.875Z,4.80
2019-05-22T20:20:51.883Z,6.15
2019-05-22T20:23:34.639Z,6.15
2019-05-22T20:25:52.372Z,6.47
2019-05-22T20:28:21.461Z,6.55
2019-05-22T20:30:50.668Z,6.70
2019-05-22T20:33:20.682Z,6.35
2019-05-22T20:35:49.366Z,6.12
2019-05-22T20:38:18.458Z,6.72
2019-05-22T20:40:47.858Z,6.47
2019-05-22T20:43:17.159Z,6.05
2019-05-22T20:45:46.564Z,6.42
2019-05-22T20:48:24.669Z,6.65
2019-05-22T20:50:55.329Z,6.47
2019-05-22T20:53:25.665Z,6.83
2019-05-22T20:55:55.018Z,7.03
2019-05-22T20:58:24.083Z,7.87
2019-05-22T21:00:53.527Z,6.53
2019-05-22T21:03:23.049Z,6.42
2019-05-22T21:05:54.298Z,6.80
2019-05-22T21:08:25.233Z,7.75
2019-05-22T21:10:55.731Z,9.33
2019-05-22T21:13:24.499Z,9.13
2019-05-22T21:15:54.934Z,11.25
2019-05-22T21:18:28.205Z,10.43
2019-05-22T21:20:57.415Z,9.70
2019-05-22T21:23:28.717Z,8.23
2019-05-22T21:25:57.814Z,9.55
2019-05-22T21:28:26.881Z,8.15
2019-05-22T21:30:57.574Z,7.65
2019-05-22T21:33:26.307Z,7.05
2019-05-22T21:35:55.301Z,7.10
2019-05-22T21:38:24.638Z,6.10
2019-05-22T21:40:56.051Z,5.87
2019-05-22T21:43:24.872Z,5.15
2019-05-22T21:45:53.811Z,5.75
2019-05-22T21:48:22.498Z,5.47
2019-05-22T21:50:51.508Z,5.42
2019-05-22T21:53:21.208Z,5.10
2019-05-22T21:56:03.696Z,5.75
2019-05-22T21:58:21.244Z,5.15
2019-05-22T22:01:29.371Z,5.37
2019-05-22T22:04:20.784Z,5.15
2019-05-22T22:06:51.440Z,4.90
2019-05-22T22:09:21.934Z,5.87
2019-05-22T22:11:50.915Z,5.10
2019-05-22T22:14:20.896Z,4.87
2019-05-22T22:16:49.936Z,4.90
2019-05-22T22:19:20.494Z,5.28
2019-05-22T22:21:50.278Z,5.37
2019-05-22T22:24:20.389Z,4.97
2019-05-22T22:26:50.208Z,4.72
2019-05-22T22:29:19.814Z,5.15
2019-05-22T22:31:48.944Z,5.62
2019-05-22T22:34:27.659Z,6.45
2019-05-22T22:36:57.734Z,6.85
2019-05-22T22:39:28.385Z,6.65
2019-05-22T22:41:59.715Z,6.60
2019-05-22T22:44:29.579Z,6.78
2019-05-22T22:47:04.314Z,6.53
2019-05-22T22:49:35.183Z,6.50
2019-05-22T22:52:07.664Z,6.60
2019-05-22T22:54:37.629Z,6.47
2019-05-22T22:57:06.947Z,6.72
2019-05-22T22:59:36.380Z,7.00
2019-05-22T23:02:09.627Z,7.30
2019-05-22T23:04:39.760Z,7.75
2019-05-22T23:07:09.789Z,8.65
2019-05-22T23:09:42.720Z,8.70
2019-05-22T23:12:12.936Z,8.85
2019-05-22T23:14:47.989Z,9.05
2019-05-22T23:17:20.510Z,8.70
2019-05-22T23:19:48.238Z,9.20
2019-05-22T23:22:19.537Z,8.73
2019-05-22T23:24:52.099Z,8.60
2019-05-22T23:27:21.486Z,7.78
2019-05-22T23:29:51.345Z,7.25
2019-05-22T23:32:21.774Z,6.90
2019-05-22T23:34:51.282Z,6.95
2019-05-22T23:37:22.474Z,7.08
2019-05-22T23:39:56.925Z,6.78
2019-05-22T23:42:31.465Z,6.97
2019-05-22T23:45:03.637Z,7.47
2019-05-22T23:47:32.661Z,6.53
2019-05-22T23:50:01.669Z,7.03
2019-05-22T23:52:31.041Z,6.90
2019-05-22T23:55:01.169Z,7.05
2019-05-22T23:57:30.753Z,7.65
